createdAt,value
2018-10-19T00:00:44.653Z,9.80
2018-10-19T00:03:13.072Z,9.70
2018-10-19T00:05:41.361Z,9.70
2018-10-19T00:08:09.703Z,9.70
2018-10-19T00:10:38.060Z,9.70
2018-10-19T00:13:06.455Z,9.70
2018-10-19T00:15:34.803Z,9.80
2018-10-19T00:18:03.171Z,9.70
2018-10-19T00:20:31.641Z,9.70
2018-10-19T00:23:00.064Z,9.80
2018-10-19T00:25:28.455Z,9.70
2018-10-19T00:27:56.859Z,9.70
2018-10-19T00:30:25.199Z,9.60
2018-10-19T00:32:53.588Z,9.70
2018-10-19T00:35:21.968Z,9.60
2018-10-19T00:37:50.319Z,9.60
2018-10-19T00:40:18.668Z,9.60
2018-10-19T00:42:47.027Z,9.60
2018-10-19T00:45:15.541Z,9.60
2018-10-19T00:47:43.823Z,9.60
2018-10-19T00:50:12.274Z,9.60
2018-10-19T00:52:40.602Z,9.60
2018-10-19T00:55:08.998Z,9.60
2018-10-19T00:57:37.345Z,9.60
2018-10-19T01:00:05.702Z,9.60
2018-10-19T01:02:34.086Z,9.70
2018-10-19T01:05:02.523Z,9.70
2018-10-19T01:07:30.836Z,9.70
2018-10-19T01:09:59.198Z,9.70
2018-10-19T01:12:27.551Z,9.70
2018-10-19T01:14:55.930Z,9.70
2018-10-19T01:17:24.263Z,9.80
2018-10-19T01:19:52.619Z,9.70
2018-10-19T01:22:20.976Z,9.70
2018-10-19T01:24:49.328Z,9.70
2018-10-19T01:27:17.673Z,9.70
2018-10-19T01:29:46.034Z,9.60
2018-10-19T01:32:14.410Z,9.50
2018-10-19T01:34:42.751Z,9.60
2018-10-19T01:37:11.198Z,9.60
2018-10-19T01:39:39.551Z,9.50
2018-10-19T01:42:07.973Z,9.50
2018-10-19T01:44:36.302Z,9.50
2018-10-19T01:47:04.727Z,9.50
2018-10-19T01:49:33.051Z,9.50
2018-10-19T01:52:01.414Z,9.50
2018-10-19T01:54:29.782Z,9.40
2018-10-19T01:56:58.206Z,9.40
2018-10-19T01:59:26.535Z,9.40
2018-10-19T02:01:54.901Z,9.40
2018-10-19T02:04:23.236Z,9.40
2018-10-19T02:06:51.754Z,9.40
2018-10-19T02:09:20.238Z,9.40
2018-10-19T02:11:48.576Z,9.50
2018-10-19T02:14:16.924Z,9.40
2018-10-19T02:16:45.293Z,9.40
2018-10-19T02:19:13.648Z,9.40
2018-10-19T02:21:42.010Z,9.40
2018-10-19T02:24:10.338Z,9.40
2018-10-19T02:26:39.726Z,9.50
2018-10-19T02:29:08.212Z,9.50
2018-10-19T02:31:36.495Z,9.50
2018-10-19T02:34:05.072Z,9.60
2018-10-19T02:36:33.415Z,9.60
2018-10-19T02:39:01.862Z,9.50
2018-10-19T02:41:30.205Z,9.50
2018-10-19T02:43:58.620Z,9.50
2018-10-19T02:46:26.975Z,9.50
2018-10-19T02:48:55.321Z,9.50
2018-10-19T02:51:23.745Z,9.40
2018-10-19T02:53:52.217Z,9.40
2018-10-19T02:56:20.669Z,9.50
2018-10-19T02:58:49.042Z,9.50
2018-10-19T03:01:17.422Z,9.50
2018-10-19T03:03:45.850Z,9.50
2018-10-19T03:06:14.205Z,9.50
2018-10-19T03:08:42.571Z,9.50
2018-10-19T03:11:10.978Z,9.50
2018-10-19T03:13:39.343Z,9.50
2018-10-19T03:16:07.730Z,9.40
2018-10-19T03:18:36.087Z,9.40
2018-10-19T03:21:04.718Z,9.40
2018-10-19T03:23:33.056Z,9.40
2018-10-19T03:26:02.432Z,9.40
2018-10-19T03:28:30.831Z,9.40
2018-10-19T03:30:59.189Z,9.40
2018-10-19T03:33:27.571Z,9.40
2018-10-19T03:35:55.959Z,9.40
2018-10-19T03:38:24.591Z,9.40
2018-10-19T03:40:53.188Z,9.40
2018-10-19T03:43:21.768Z,9.40
2018-10-19T03:45:50.338Z,9.40
2018-10-19T03:48:18.922Z,9.40
2018-10-19T03:50:47.456Z,9.30
2018-10-19T03:53:16.087Z,9.30
2018-10-19T03:55:44.608Z,9.30
2018-10-19T03:58:14.226Z,9.30
2018-10-19T04:00:42.754Z,9.30
2018-10-19T04:03:11.360Z,9.30
2018-10-19T04:05:39.855Z,9.30
2018-10-19T04:08:08.499Z,9.20
2018-10-19T04:10:37.055Z,9.20
2018-10-19T04:13:05.619Z,9.20
2018-10-19T04:15:34.139Z,9.20
2018-10-19T04:18:02.753Z,9.20
2018-10-19T04:20:31.315Z,9.20
2018-10-19T04:23:04.401Z,9.20
2018-10-19T04:25:33.013Z,9.20
2018-10-19T04:28:01.713Z,9.30
2018-10-19T04:30:30.373Z,9.30
2018-10-19T04:33:05.940Z,9.30
2018-10-19T04:35:34.375Z,9.30
2018-10-19T04:38:03.643Z,9.30
2018-10-19T04:40:32.214Z,9.30
2018-10-19T04:43:01.181Z,9.20
2018-10-19T04:45:29.878Z,9.20
2018-10-19T04:47:58.630Z,9.20
2018-10-19T04:50:27.388Z,9.20
2018-10-19T04:52:55.870Z,9.20
2018-10-19T04:55:24.207Z,9.30
2018-10-19T04:57:52.612Z,9.30
2018-10-19T05:00:21.572Z,9.30
2018-10-19T05:02:50.910Z,9.30
2018-10-19T05:05:19.655Z,9.20
2018-10-19T05:07:48.024Z,9.10
2018-10-19T05:10:16.552Z,9.20
2018-10-19T05:12:45.138Z,9.20
2018-10-19T05:15:13.485Z,9.10
2018-10-19T05:17:41.948Z,9.10
2018-10-19T05:20:11.581Z,9.10
2018-10-19T05:22:40.019Z,9.00
2018-10-19T05:25:10.183Z,9.00
2018-10-19T05:27:38.695Z,8.90
2018-10-19T05:30:08.967Z,8.90
2018-10-19T05:32:37.664Z,8.90
2018-10-19T05:35:06.959Z,8.90
2018-10-19T05:37:35.572Z,8.90
2018-10-19T05:40:04.037Z,8.90
2018-10-19T05:42:32.572Z,8.90
2018-10-19T05:45:01.097Z,8.90
2018-10-19T05:47:29.723Z,8.90
2018-10-19T05:49:58.202Z,8.90
2018-10-19T05:52:26.783Z,9.00
2018-10-19T05:54:55.281Z,9.00
2018-10-19T05:57:23.805Z,8.90
2018-10-19T05:59:52.467Z,8.90
2018-10-19T06:02:21.427Z,8.80
2018-10-19T06:04:49.843Z,8.90
2018-10-19T06:07:18.307Z,8.90
2018-10-19T06:09:46.939Z,8.90
2018-10-19T06:12:16.523Z,8.90
2018-10-19T06:14:45.039Z,8.90
2018-10-19T06:17:13.530Z,8.90
2018-10-19T06:19:42.031Z,8.90
2018-10-19T06:22:10.569Z,8.90
2018-10-19T06:24:39.056Z,8.90
2018-10-19T06:27:07.548Z,8.90
2018-10-19T06:29:37.067Z,9.00
2018-10-19T06:32:06.053Z,8.90
2018-10-19T06:34:34.574Z,8.90
2018-10-19T06:37:03.014Z,8.90
2018-10-19T06:39:31.552Z,8.90
2018-10-19T06:42:01.091Z,8.90
2018-10-19T06:44:29.594Z,9.00
2018-10-19T06:46:58.248Z,9.00
2018-10-19T06:49:26.725Z,9.10
2018-10-19T06:51:55.300Z,9.20
2018-10-19T06:54:25.082Z,9.20
2018-10-19T06:56:53.618Z,9.10
2018-10-19T06:59:22.246Z,9.10
2018-10-19T07:01:50.814Z,9.20
2018-10-19T07:04:19.403Z,9.20
2018-10-19T07:06:48.019Z,9.30
2018-10-19T07:09:16.518Z,9.20
2018-10-19T07:11:45.101Z,9.30
2018-10-19T07:14:14.690Z,9.20
2018-10-19T07:16:43.293Z,9.20
2018-10-19T07:19:11.840Z,9.30
2018-10-19T07:21:40.356Z,9.30
2018-10-19T07:24:08.861Z,9.30
2018-10-19T07:26:37.367Z,9.40
2018-10-19T07:29:05.902Z,9.40
2018-10-19T07:31:34.534Z,9.40
2018-10-19T07:34:03.184Z,9.50
2018-10-19T07:36:31.844Z,9.60
2018-10-19T07:39:00.292Z,9.60
2018-10-19T07:41:29.810Z,9.70
2018-10-19T07:43:58.368Z,9.70
2018-10-19T07:46:27.579Z,9.70
2018-10-19T07:48:56.159Z,9.70
2018-10-19T07:51:24.782Z,9.80
2018-10-19T07:53:53.284Z,9.90
2018-10-19T07:56:21.684Z,9.90
2018-10-19T07:58:50.199Z,10.00
2018-10-19T08:01:18.932Z,10.00
2018-10-19T08:03:47.442Z,10.20
2018-10-19T08:06:16.046Z,10.20
2018-10-19T08:08:44.587Z,10.10
2018-10-19T08:11:13.170Z,10.10
2018-10-19T08:13:41.613Z,10.00
2018-10-19T08:16:10.287Z,10.10
2018-10-19T08:18:38.887Z,10.10
2018-10-19T08:21:07.915Z,10.10
2018-10-19T08:23:36.310Z,10.10
2018-10-19T08:26:05.076Z,10.20
2018-10-19T08:28:33.606Z,10.20
2018-10-19T08:31:02.345Z,10.30
2018-10-19T08:33:30.820Z,10.40
2018-10-19T08:35:59.532Z,10.50
2018-10-19T08:38:28.069Z,10.60
2018-10-19T08:40:56.709Z,10.60
2018-10-19T08:43:25.317Z,10.60
2018-10-19T08:45:54.051Z,10.60
2018-10-19T08:48:22.744Z,10.70
2018-10-19T08:50:51.297Z,10.80
2018-10-19T08:53:20.224Z,10.90
2018-10-19T08:55:48.893Z,11.00
2018-10-19T08:58:17.445Z,11.00
2018-10-19T09:00:46.012Z,11.00
2018-10-19T09:03:14.793Z,11.10
2018-10-19T09:05:43.862Z,11.10
2018-10-19T09:08:12.453Z,11.00
2018-10-19T09:10:41.032Z,10.90
2018-10-19T09:13:09.544Z,10.80
2018-10-19T09:15:38.348Z,11.00
2018-10-19T09:18:07.097Z,11.10
2018-10-19T09:20:35.862Z,11.10
2018-10-19T09:23:04.529Z,11.10
2018-10-19T09:25:33.255Z,11.10
2018-10-19T09:28:01.879Z,11.20
2018-10-19T09:30:30.522Z,11.30
2018-10-19T09:32:59.160Z,11.30
2018-10-19T09:35:27.756Z,11.30
2018-10-19T09:37:56.344Z,11.40
2018-10-19T09:40:25.051Z,11.40
2018-10-19T09:42:53.711Z,11.60
2018-10-19T09:45:22.635Z,11.90
2018-10-19T09:47:51.173Z,12.10
2018-10-19T09:50:19.634Z,12.00
2018-10-19T09:52:48.834Z,12.20
2018-10-19T09:55:17.560Z,12.20
2018-10-19T09:57:46.012Z,12.30
2018-10-19T10:00:20.813Z,12.20
2018-10-19T10:02:49.666Z,12.20
2018-10-19T10:05:18.305Z,12.10
2018-10-19T10:07:47.021Z,12.10
2018-10-19T10:10:15.598Z,12.00
2018-10-19T10:12:44.219Z,11.90
2018-10-19T10:15:13.022Z,11.90
2018-10-19T10:17:41.404Z,12.00
2018-10-19T10:20:10.047Z,12.10
2018-10-19T10:22:38.714Z,12.10
2018-10-19T10:25:07.991Z,12.20
2018-10-19T10:27:36.730Z,12.10
2018-10-19T10:30:06.186Z,12.00
2018-10-19T10:32:34.996Z,11.80
2018-10-19T10:35:03.586Z,11.70
2018-10-19T10:37:32.096Z,11.60
2018-10-19T10:40:00.720Z,11.50
2018-10-19T10:42:29.217Z,11.60
2018-10-19T10:44:57.718Z,11.90
2018-10-19T10:47:26.338Z,12.10
2018-10-19T10:49:55.075Z,12.50
2018-10-19T10:52:25.545Z,12.80
2018-10-19T10:54:54.096Z,13.10
2018-10-19T10:57:22.592Z,13.30
2018-10-19T10:59:51.072Z,13.30
2018-10-19T11:02:19.615Z,13.30
2018-10-19T11:04:48.149Z,13.50
2018-10-19T11:07:16.727Z,13.80
2018-10-19T11:09:45.130Z,14.00
2018-10-19T11:12:13.675Z,14.00
2018-10-19T11:14:42.176Z,13.90
2018-10-19T11:17:10.797Z,14.30
2018-10-19T11:19:39.371Z,14.50
2018-10-19T11:22:08.065Z,14.70
2018-10-19T11:24:36.496Z,14.70
2018-10-19T11:27:05.311Z,14.40
2018-10-19T11:29:33.921Z,14.30
2018-10-19T11:32:02.435Z,14.20
2018-10-19T11:34:31.059Z,14.30
2018-10-19T11:36:59.532Z,14.20
2018-10-19T11:39:28.155Z,14.50
2018-10-19T11:41:56.756Z,14.80
2018-10-19T11:44:26.243Z,14.80
2018-10-19T11:46:57.854Z,14.70
2018-10-19T11:49:26.330Z,14.70
2018-10-19T11:51:54.823Z,14.60
2018-10-19T11:54:23.416Z,14.50
2018-10-19T11:56:52.070Z,14.20
2018-10-19T11:59:20.629Z,14.00
2018-10-19T12:01:49.199Z,14.10
2018-10-19T12:04:17.810Z,14.20
2018-10-19T12:06:46.282Z,14.30
2018-10-19T12:09:14.805Z,13.90
2018-10-19T12:11:43.266Z,13.60
2018-10-19T12:14:11.759Z,13.20
2018-10-19T12:16:41.572Z,12.90
2018-10-19T12:19:10.046Z,12.80
2018-10-19T12:21:38.466Z,12.80
2018-10-19T12:24:07.999Z,12.90
2018-10-19T12:26:36.609Z,13.00
2018-10-19T12:29:05.180Z,13.20
2018-10-19T12:31:33.766Z,13.20
2018-10-19T12:34:02.443Z,13.20
2018-10-19T12:36:31.063Z,13.20
2018-10-19T12:38:59.828Z,13.40
2018-10-19T12:41:29.474Z,13.40
2018-10-19T12:43:58.068Z,13.10
2018-10-19T12:46:41.954Z,13.10
2018-10-19T12:49:11.515Z,13.20
2018-10-19T12:51:40.282Z,13.20
2018-10-19T12:54:09.131Z,13.50
2018-10-19T12:56:37.778Z,13.90
2018-10-19T12:59:06.366Z,14.20
2018-10-19T13:01:35.114Z,14.10
2018-10-19T13:04:04.117Z,14.30
2018-10-19T13:06:32.845Z,14.40
2018-10-19T13:09:01.471Z,14.50
2018-10-19T13:11:30.143Z,14.60
2018-10-19T13:13:58.743Z,14.70
2018-10-19T13:16:27.433Z,14.40
2018-10-19T13:18:56.109Z,14.20
2018-10-19T13:21:25.795Z,14.10
2018-10-19T13:23:54.504Z,13.90
2018-10-19T13:26:23.189Z,14.00
2018-10-19T13:28:51.895Z,14.20
2018-10-19T13:31:20.502Z,14.10
2018-10-19T13:33:48.955Z,14.00
2018-10-19T13:36:17.631Z,13.90
2018-10-19T13:38:46.105Z,14.00
2018-10-19T13:41:14.720Z,14.00
2018-10-19T13:43:43.842Z,14.00
2018-10-19T13:46:12.487Z,14.00
2018-10-19T13:48:41.137Z,14.10
2018-10-19T13:51:09.669Z,14.20
2018-10-19T13:53:38.179Z,14.10
2018-10-19T13:56:06.677Z,13.90
2018-10-19T13:58:37.387Z,13.80
2018-10-19T14:01:06.419Z,13.60
2018-10-19T14:03:35.023Z,13.50
2018-10-19T14:06:03.623Z,13.60
2018-10-19T14:08:32.318Z,13.70
2018-10-19T14:11:00.922Z,13.70
2018-10-19T14:13:29.652Z,13.80
2018-10-19T14:15:58.209Z,13.80
2018-10-19T14:18:26.770Z,13.80
2018-10-19T14:20:55.416Z,13.80
2018-10-19T14:23:24.011Z,13.80
2018-10-19T14:25:52.611Z,13.80
2018-10-19T14:28:21.230Z,13.70
2018-10-19T14:30:49.803Z,13.70
2018-10-19T14:33:18.476Z,13.70
2018-10-19T14:35:46.911Z,13.70
2018-10-19T14:38:15.415Z,13.70
2018-10-19T14:40:44.066Z,13.70
2018-10-19T14:43:12.598Z,13.80
2018-10-19T14:45:41.090Z,13.80
2018-10-19T14:48:09.605Z,13.80
2018-10-19T14:50:38.082Z,13.70
2018-10-19T14:53:06.668Z,13.70
2018-10-19T14:55:35.300Z,13.80
2018-10-19T14:58:03.862Z,13.60
2018-10-19T15:00:32.473Z,13.60
2018-10-19T15:03:01.129Z,13.50
2018-10-19T15:05:29.732Z,13.30
2018-10-19T15:07:58.243Z,13.30
2018-10-19T15:10:27.068Z,13.30
2018-10-19T15:12:55.420Z,13.30
2018-10-19T15:15:24.111Z,13.20
2018-10-19T15:17:52.634Z,13.00
2018-10-19T15:20:21.183Z,12.90
2018-10-19T15:22:51.651Z,12.80
2018-10-19T15:25:20.260Z,12.60
2018-10-19T15:27:48.767Z,12.40
2018-10-19T15:30:18.631Z,12.40
2018-10-19T15:32:47.070Z,12.40
2018-10-19T15:35:15.529Z,12.30
2018-10-19T15:37:44.051Z,12.30
2018-10-19T15:40:12.779Z,12.20
2018-10-19T15:42:41.322Z,12.20
2018-10-19T15:45:11.182Z,12.20
2018-10-19T15:47:39.668Z,12.20
2018-10-19T15:50:08.712Z,12.10
2018-10-19T15:52:38.284Z,12.10
2018-10-19T15:55:07.111Z,12.00
2018-10-19T15:57:35.618Z,12.00
2018-10-19T16:00:04.193Z,11.90
2018-10-19T16:02:32.659Z,11.90
2018-10-19T16:05:01.250Z,11.90
2018-10-19T16:07:29.823Z,11.80
2018-10-19T16:09:58.389Z,11.80
2018-10-19T16:12:26.892Z,11.90
2018-10-19T16:14:55.495Z,11.80
2018-10-19T16:17:23.962Z,11.80
2018-10-19T16:19:52.730Z,11.70
2018-10-19T16:22:21.274Z,11.70
2018-10-19T16:24:49.739Z,11.60
2018-10-19T16:27:18.344Z,11.60
2018-10-19T16:29:46.756Z,11.60
2018-10-19T16:32:18.467Z,11.60
2018-10-19T16:34:47.275Z,11.60
2018-10-19T16:37:15.608Z,11.50
2018-10-19T16:39:44.021Z,11.50
2018-10-19T16:42:12.554Z,11.50
2018-10-19T16:44:40.916Z,11.50
2018-10-19T16:47:09.359Z,11.40
2018-10-19T16:49:37.795Z,11.40
2018-10-19T16:52:06.375Z,11.40
2018-10-19T16:54:34.701Z,11.30
2018-10-19T16:57:03.242Z,11.20
2018-10-19T16:59:33.688Z,11.10
2018-10-19T17:02:02.209Z,11.20
2018-10-19T17:04:30.660Z,11.20
2018-10-19T17:06:59.155Z,11.20
2018-10-19T17:09:27.607Z,11.20
2018-10-19T17:11:56.046Z,11.10
2018-10-19T17:14:24.523Z,11.10
2018-10-19T17:16:55.167Z,11.10
2018-10-19T17:19:26.758Z,11.10
2018-10-19T17:21:55.159Z,11.10
2018-10-19T17:24:23.641Z,11.10
2018-10-19T17:26:52.118Z,11.10
2018-10-19T17:29:20.587Z,11.10
2018-10-19T17:31:49.097Z,11.00
2018-10-19T17:34:17.557Z,11.10
2018-10-19T17:36:46.118Z,11.00
2018-10-19T17:39:14.724Z,11.00
2018-10-19T17:41:43.082Z,11.00
2018-10-19T17:44:11.561Z,10.90
2018-10-19T17:46:40.031Z,10.80
2018-10-19T17:49:08.534Z,10.70
2018-10-19T17:51:36.930Z,10.70
2018-10-19T17:54:05.569Z,10.70
2018-10-19T17:56:33.985Z,10.60
2018-10-19T17:59:02.609Z,10.60
2018-10-19T18:01:31.079Z,10.50
2018-10-19T18:03:59.638Z,10.60
2018-10-19T18:06:30.159Z,10.60
2018-10-19T18:08:58.671Z,10.60
2018-10-19T18:11:27.160Z,10.50
2018-10-19T18:13:55.661Z,10.40
2018-10-19T18:16:25.096Z,10.40
2018-10-19T18:18:53.654Z,10.30
2018-10-19T18:21:22.168Z,10.20
2018-10-19T18:23:50.841Z,10.10
2018-10-19T18:26:19.128Z,10.00
2018-10-19T18:28:47.773Z,10.00
2018-10-19T18:31:16.258Z,10.00
2018-10-19T18:33:44.724Z,9.90
2018-10-19T18:36:14.174Z,9.90
2018-10-19T18:38:42.624Z,9.70
2018-10-19T18:41:11.472Z,9.70
2018-10-19T18:43:39.935Z,9.70
2018-10-19T18:46:08.495Z,9.60
2018-10-19T18:48:37.153Z,9.60
2018-10-19T18:51:05.901Z,9.60
2018-10-19T18:53:34.346Z,9.60
2018-10-19T18:56:02.848Z,9.70
2018-10-19T18:58:31.291Z,9.70
2018-10-19T19:00:59.843Z,9.60
2018-10-19T19:03:28.366Z,9.60
2018-10-19T19:05:56.814Z,9.50
2018-10-19T19:08:26.250Z,9.60
2018-10-19T19:10:54.698Z,9.50
2018-10-19T19:13:29.786Z,9.40
2018-10-19T19:15:58.746Z,9.30
2018-10-19T19:18:27.259Z,9.30
2018-10-19T19:20:55.827Z,9.30
2018-10-19T19:23:24.317Z,9.30
2018-10-19T19:25:58.238Z,9.20
2018-10-19T19:28:26.718Z,9.30
2018-10-19T19:30:55.426Z,9.30
2018-10-19T19:33:29.390Z,9.20
2018-10-19T19:35:57.841Z,9.20
2018-10-19T19:38:27.265Z,9.10
2018-10-19T19:41:01.132Z,9.10
2018-10-19T19:43:29.567Z,9.00
2018-10-19T19:45:58.002Z,8.90
2018-10-19T19:50:32.815Z,8.80
2018-10-19T19:53:01.453Z,8.70
2018-10-19T19:55:29.843Z,8.60
2018-10-19T19:57:58.342Z,8.60
2018-10-19T20:00:26.839Z,8.50
2018-10-19T20:02:55.365Z,8.50
2018-10-19T20:05:23.887Z,8.60
2018-10-19T20:07:52.412Z,8.60
2018-10-19T20:10:21.024Z,8.70
2018-10-19T20:12:49.582Z,8.70
2018-10-19T20:15:18.103Z,8.80
2018-10-19T20:17:46.620Z,8.80
2018-10-19T20:20:15.211Z,8.70
2018-10-19T20:22:43.747Z,8.70
2018-10-19T20:25:12.907Z,8.70
2018-10-19T20:27:41.696Z,8.70
2018-10-19T20:30:11.900Z,8.80
2018-10-19T20:32:40.466Z,8.70
2018-10-19T20:35:09.413Z,8.70
2018-10-19T20:37:37.854Z,8.70
2018-10-19T20:40:06.295Z,8.80
2018-10-19T20:42:34.922Z,8.80
2018-10-19T20:45:03.731Z,8.90
2018-10-19T20:47:32.191Z,9.00
2018-10-19T20:50:00.687Z,9.00
2018-10-19T20:52:29.141Z,8.90
2018-10-19T20:54:57.799Z,9.00
2018-10-19T20:57:26.191Z,8.90
2018-10-19T20:59:54.707Z,9.00
2018-10-19T21:02:23.183Z,9.10
2018-10-19T21:04:51.607Z,9.00
2018-10-19T21:07:20.205Z,9.10
2018-10-19T21:09:48.548Z,9.10
2018-10-19T21:12:16.965Z,9.10
2018-10-19T21:14:45.379Z,9.10
2018-10-19T21:17:13.891Z,9.10
2018-10-19T21:19:42.300Z,9.00
2018-10-19T21:22:10.653Z,8.80
2018-10-19T21:24:39.131Z,8.70
2018-10-19T21:27:07.763Z,8.50
2018-10-19T21:29:36.218Z,8.40
2018-10-19T21:32:04.743Z,8.30
2018-10-19T21:34:33.135Z,8.20
2018-10-19T21:37:01.700Z,8.10
2018-10-19T21:39:31.071Z,8.10
2018-10-19T21:41:59.422Z,8.00
2018-10-19T21:44:27.791Z,8.00
2018-10-19T21:46:56.178Z,7.90
2018-10-19T21:49:24.592Z,7.80
2018-10-19T21:51:53.038Z,7.70
2018-10-19T21:54:21.442Z,7.70
2018-10-19T21:56:49.855Z,7.70
2018-10-19T21:59:18.331Z,7.50
2018-10-19T22:01:48.742Z,7.50
2018-10-19T22:04:17.204Z,7.60
2018-10-19T22:06:45.610Z,7.60
2018-10-19T22:09:14.186Z,7.50
2018-10-19T22:11:42.862Z,7.50
2018-10-19T22:14:11.424Z,7.50
2018-10-19T22:16:40.499Z,7.50
2018-10-19T22:19:09.895Z,7.50
2018-10-19T22:21:38.494Z,7.50
2018-10-19T22:24:07.544Z,7.50
2018-10-19T22:26:36.891Z,7.50
2018-10-19T22:29:05.433Z,7.50
2018-10-19T22:31:33.770Z,7.50
2018-10-19T22:34:02.152Z,7.40
2018-10-19T22:36:30.670Z,7.40
2018-10-19T22:38:59.343Z,7.30
2018-10-19T22:41:27.848Z,7.20
2018-10-19T22:43:56.215Z,7.10
2018-10-19T22:46:25.608Z,7.10
2018-10-19T22:48:54.017Z,7.10
2018-10-19T22:51:22.413Z,7.00
2018-10-19T22:53:50.790Z,6.90
2018-10-19T22:56:19.242Z,6.80
2018-10-19T22:58:47.733Z,6.70
2018-10-19T23:01:16.189Z,6.60
2018-10-19T23:03:44.566Z,6.50
2018-10-19T23:06:12.963Z,6.40
2018-10-19T23:08:41.399Z,6.30
2018-10-19T23:11:09.905Z,6.20
2018-10-19T23:13:38.255Z,6.10
2018-10-19T23:16:06.656Z,6.00
2018-10-19T23:18:35.051Z,5.90
2018-10-19T23:21:04.421Z,5.90
2018-10-19T23:23:33.693Z,5.80
2018-10-19T23:26:02.127Z,5.80
2018-10-19T23:28:30.496Z,5.70
2018-10-19T23:30:59.906Z,5.70
2018-10-19T23:33:28.206Z,5.70
2018-10-19T23:35:56.556Z,5.80
2018-10-19T23:38:24.958Z,5.80
2018-10-19T23:40:53.341Z,5.90
2018-10-19T23:43:21.671Z,6.00
2018-10-19T23:45:50.075Z,6.10
2018-10-19T23:48:18.469Z,6.20
2018-10-19T23:50:47.057Z,6.20
2018-10-19T23:53:15.620Z,6.10
2018-10-19T23:55:43.946Z,6.00
2018-10-19T23:58:12.332Z,5.90
